Time;durP1;ratioP1;P1;durP2;ratioP2;P2;SDS_P1;SDS_P2;PMS_P1;PMS_P2;Temp;Humidity;BMP_temperature;BMP_pressure;BME280_temperature;BME280_humidity;BME280_pressure;Samples;Min_cycle;Max_cycle;Signal;HPM_P1;HPM_P2
2021/07/04 00:02:16;;;;;;;22.27;16.50;;;;;;;;;;5023809;28;20513;-69
2021/07/04 00:04:42;;;;;;;21.10;16.75;;;;;;;;;;5009430;28;20274;-69
2021/07/04 00:07:08;;;;;;;19.65;15.98;;;;;;;;;;5024341;28;20280;-70
2021/07/04 00:09:34;;;;;;;20.42;16.17;;;;;;;;;;5015194;28;20205;-70
2021/07/04 00:11:59;;;;;;;18.73;16.05;;;;;;;;;;5020112;28;20605;-70
2021/07/04 00:14:24;;;;;;;20.52;16.52;;;;;;;;;;5014434;28;20193;-70
2021/07/04 00:16:50;;;;;;;20.85;17.17;;;;;;;;;;5023584;28;20201;-70
2021/07/04 00:19:16;;;;;;;23.65;17.48;;;;;;;;;;5011384;28;20203;-69
2021/07/04 00:21:41;;;;;;;23.58;17.60;;;;;;;;;;5022541;28;20269;-70
2021/07/04 00:24:07;;;;;;;20.73;17.13;;;;;;;;;;5007518;28;20190;-70
2021/07/04 00:26:33;;;;;;;21.27;18.35;;;;;;;;;;5020394;28;20198;-70
2021/07/04 00:28:59;;;;;;;21.92;17.35;;;;;;;;;;5016883;28;20210;-70
2021/07/04 00:31:25;;;;;;;20.92;17.92;;;;;;;;;;4998533;28;20201;-70
2021/07/04 00:33:51;;;;;;;21.85;17.98;;;;;;;;;;5019435;28;20240;-70
2021/07/04 00:36:16;;;;;;;23.73;18.27;;;;;;;;;;4997246;28;20190;-70
2021/07/04 00:38:41;;;;;;;21.63;17.77;;;;;;;;;;5019968;28;20763;-70
2021/07/04 00:41:07;;;;;;;22.17;17.95;;;;;;;;;;4996505;28;20200;-70
2021/07/04 00:43:32;;;;;;;22.02;17.90;;;;;;;;;;5022008;28;20190;-70
2021/07/04 00:45:57;;;;;;;21.38;17.42;;;;;;;;;;5014618;28;20221;-70
2021/07/04 00:48:23;;;;;;;20.98;18.50;;;;;;;;;;5022547;28;20665;-70
2021/07/04 00:50:48;;;;;;;21.40;17.55;;;;;;;;;;5016156;28;20277;-70
2021/07/04 00:53:14;;;;;;;23.48;19.35;;;;;;;;;;5024074;28;20606;-70
2021/07/04 00:55:40;;;;;;;21.48;17.92;;;;;;;;;;5021834;28;20193;-70
2021/07/04 00:58:05;;;;;;;21.27;17.63;;;;;;;;;;5020676;28;20228;-70
2021/07/04 01:00:34;;;;;;;21.67;18.45;;;;;;;;;;5026636;28;20202;-70
2021/07/04 01:02:59;;;;;;;24.15;19.23;;;;;;;;;;5014124;28;20864;-70
2021/07/04 01:05:31;;;;;;;21.23;18.50;;;;;;;;;;5025135;28;20618;-70
2021/07/04 01:07:57;;;;;;;24.33;18.15;;;;;;;;;;5015149;28;20206;-70
2021/07/04 01:10:26;;;;;;;20.95;17.85;;;;;;;;;;5006866;28;20196;-70
2021/07/04 01:12:54;;;;;;;22.52;18.10;;;;;;;;;;4996408;28;20190;-73
2021/07/04 01:15:21;;;;;;;21.75;18.75;;;;;;;;;;5007569;28;20577;-73
2021/07/04 01:17:49;;;;;;;24.15;18.20;;;;;;;;;;5016358;28;20186;-73
2021/07/04 01:20:17;;;;;;;20.33;18.05;;;;;;;;;;5009105;28;20232;-72
2021/07/04 01:23:02;;;;;;;25.00;18.70;;;;;;;;;;5014909;28;20205;-72
2021/07/04 01:25:29;;;;;;;22.15;18.30;;;;;;;;;;5026160;28;20249;-72
2021/07/04 01:27:55;;;;;;;24.05;19.17;;;;;;;;;;4995245;28;20203;-72
2021/07/04 01:30:21;;;;;;;24.42;19.45;;;;;;;;;;5008693;28;20190;-72
2021/07/04 01:32:46;;;;;;;23.67;18.60;;;;;;;;;;5015862;28;20181;-70
2021/07/04 01:35:12;;;;;;;24.70;17.70;;;;;;;;;;5025171;28;20240;-70
2021/07/04 01:37:38;;;;;;;23.38;19.15;;;;;;;;;;5002272;28;20619;-70
2021/07/04 01:40:04;;;;;;;33.75;21.27;;;;;;;;;;5013529;28;20538;-71
2021/07/04 01:42:30;;;;;;;28.58;20.98;;;;;;;;;;5019459;28;20187;-73
2021/07/04 01:44:55;;;;;;;26.45;20.30;;;;;;;;;;5017358;28;20193;-72
2021/07/04 01:47:20;;;;;;;28.40;20.95;;;;;;;;;;5018418;28;20241;-73
2021/07/04 01:49:46;;;;;;;25.42;20.42;;;;;;;;;;5009058;28;20276;-71
2021/07/04 01:52:11;;;;;;;24.38;20.80;;;;;;;;;;5018997;28;20186;-72
2021/07/04 01:54:38;;;;;;;29.13;22.42;;;;;;;;;;4993282;28;20307;-72
2021/07/04 01:57:11;;;;;;;27.65;21.17;;;;;;;;;;5005952;28;20259;-73
2021/07/04 01:59:40;;;;;;;27.48;20.83;;;;;;;;;;4994053;28;20229;-71
2021/07/04 02:02:05;;;;;;;25.20;19.42;;;;;;;;;;5018375;28;20642;-73
2021/07/04 02:04:30;;;;;;;20.23;16.33;;;;;;;;;;5010525;28;24223;-73
2021/07/04 02:06:56;;;;;;;23.77;18.75;;;;;;;;;;5023045;28;20190;-73
2021/07/04 02:09:21;;;;;;;22.63;18.23;;;;;;;;;;5014722;28;20296;-72
2021/07/04 02:11:46;;;;;;;22.98;18.40;;;;;;;;;;5020304;28;20209;-71
2021/07/04 02:14:11;;;;;;;23.65;18.13;;;;;;;;;;5022160;28;20553;-71
2021/07/04 02:16:37;;;;;;;20.63;15.27;;;;;;;;;;5012084;28;20186;-70
2021/07/04 02:19:02;;;;;;;22.63;17.27;;;;;;;;;;5017613;28;20968;-70
2021/07/04 02:21:28;;;;;;;22.10;18.05;;;;;;;;;;5015855;28;20190;-70
2021/07/04 02:23:53;;;;;;;22.27;17.83;;;;;;;;;;5023221;28;20547;-70
2021/07/04 02:26:18;;;;;;;24.65;17.77;;;;;;;;;;5012226;28;20264;-69
2021/07/04 02:28:44;;;;;;;22.90;18.10;;;;;;;;;;5022697;28;20224;-70
2021/07/04 02:31:09;;;;;;;23.38;17.65;;;;;;;;;;5013347;28;20198;-70
2021/07/04 02:33:34;;;;;;;26.17;19.50;;;;;;;;;;5019142;28;20193;-70
2021/07/04 02:36:00;;;;;;;29.48;21.08;;;;;;;;;;5013664;28;20198;-70
2021/07/04 02:38:25;;;;;;;27.92;20.75;;;;;;;;;;5028523;28;20194;-71
2021/07/04 02:40:53;;;;;;;30.08;21.50;;;;;;;;;;5022793;28;20190;-71
2021/07/04 02:43:20;;;;;;;31.33;21.17;;;;;;;;;;5014817;28;20628;-70
2021/07/04 02:45:47;;;;;;;28.33;20.13;;;;;;;;;;5021437;28;20204;-70
2021/07/04 02:48:13;;;;;;;29.05;21.67;;;;;;;;;;5028821;28;20637;-71
2021/07/04 02:50:40;;;;;;;30.35;22.60;;;;;;;;;;5040621;28;20289;-71
2021/07/04 02:53:06;;;;;;;27.02;21.10;;;;;;;;;;5030944;28;20637;-71
2021/07/04 02:55:31;;;;;;;26.55;20.77;;;;;;;;;;5047208;28;20247;-70
2021/07/04 02:57:57;;;;;;;25.67;20.08;;;;;;;;;;5039424;28;20668;-70
2021/07/04 03:00:25;;;;;;;25.80;19.70;;;;;;;;;;5039969;28;20661;-70
2021/07/04 03:02:50;;;;;;;24.50;20.35;;;;;;;;;;5038308;28;20203;-70
2021/07/04 03:05:16;;;;;;;24.85;19.42;;;;;;;;;;5041289;28;20198;-70
2021/07/04 03:07:42;;;;;;;24.65;20.48;;;;;;;;;;5035430;28;20243;-70
2021/07/04 03:10:12;;;;;;;22.38;18.90;;;;;;;;;;5045640;28;20189;-70
2021/07/04 03:12:38;;;;;;;26.38;19.70;;;;;;;;;;5036797;28;20189;-70
2021/07/04 03:15:06;;;;;;;25.35;19.38;;;;;;;;;;5042406;28;20189;-70
2021/07/04 03:17:31;;;;;;;26.15;20.30;;;;;;;;;;5048942;28;20668;-70
2021/07/04 03:19:56;;;;;;;24.35;19.50;;;;;;;;;;5030757;28;20181;-70
2021/07/04 03:22:22;;;;;;;25.83;20.55;;;;;;;;;;5033273;28;20229;-70
2021/07/04 03:24:47;;;;;;;23.70;19.05;;;;;;;;;;5034732;28;20253;-70
2021/07/04 03:27:12;;;;;;;27.85;19.88;;;;;;;;;;5045720;28;20212;-70
2021/07/04 03:29:38;;;;;;;28.02;21.02;;;;;;;;;;5031768;28;20541;-70
2021/07/04 03:32:04;;;;;;;24.27;19.80;;;;;;;;;;5043358;28;20181;-70
2021/07/04 03:34:30;;;;;;;26.88;20.35;;;;;;;;;;5034596;28;20198;-70
2021/07/04 03:36:56;;;;;;;28.77;21.13;;;;;;;;;;5046951;28;20189;-70
2021/07/04 03:39:21;;;;;;;26.48;20.45;;;;;;;;;;5035266;28;20208;-70
2021/07/04 03:41:47;;;;;;;26.27;20.73;;;;;;;;;;5042298;28;20186;-70
2021/07/04 03:44:12;;;;;;;24.65;19.58;;;;;;;;;;5033911;28;20209;-70
2021/07/04 03:46:37;;;;;;;26.60;21.17;;;;;;;;;;5037978;28;20379;-70
2021/07/04 03:49:03;;;;;;;25.33;20.85;;;;;;;;;;5020812;28;20202;-70
2021/07/04 03:51:29;;;;;;;29.02;21.70;;;;;;;;;;5009613;28;20190;-70
2021/07/04 03:53:54;;;;;;;27.85;22.25;;;;;;;;;;5020212;28;20631;-70
2021/07/04 03:56:20;;;;;;;24.92;21.30;;;;;;;;;;4993938;28;20193;-70
2021/07/04 03:58:46;;;;;;;24.65;20.70;;;;;;;;;;5022300;28;20574;-70
2021/07/04 04:01:18;;;;;;;25.00;20.75;;;;;;;;;;4996851;28;20214;-70
2021/07/04 04:03:44;;;;;;;24.73;21.10;;;;;;;;;;5022356;28;20177;-70
2021/07/04 04:06:09;;;;;;;24.92;20.13;;;;;;;;;;5010654;28;20201;-70
2021/07/04 04:08:35;;;;;;;26.05;21.02;;;;;;;;;;5022379;28;20198;-70
2021/07/04 04:11:00;;;;;;;25.23;20.65;;;;;;;;;;5010002;28;20276;-70
2021/07/04 04:13:26;;;;;;;26.10;21.63;;;;;;;;;;5020239;28;20343;-70
2021/07/04 04:15:51;;;;;;;26.15;20.73;;;;;;;;;;5011791;28;20323;-70
2021/07/04 04:18:18;;;;;;;24.20;21.33;;;;;;;;;;5018938;28;20248;-70
2021/07/04 04:20:44;;;;;;;29.10;21.33;;;;;;;;;;5022300;28;20213;-70
2021/07/04 04:23:09;;;;;;;26.63;21.55;;;;;;;;;;4994565;28;20194;-70
2021/07/04 04:25:34;;;;;;;26.48;21.52;;;;;;;;;;5021269;28;20187;-70
2021/07/04 04:28:03;;;;;;;28.50;22.02;;;;;;;;;;5015044;28;20213;-70
2021/07/04 04:30:29;;;;;;;28.92;22.23;;;;;;;;;;5020885;28;20196;-70
2021/07/04 04:32:54;;;;;;;23.60;20.10;;;;;;;;;;4999039;28;20190;-70
2021/07/04 04:35:19;;;;;;;31.10;21.30;;;;;;;;;;5008953;28;20228;-70
2021/07/04 04:37:45;;;;;;;27.67;21.92;;;;;;;;;;5014713;28;20293;-70
2021/07/04 04:40:11;;;;;;;31.38;23.55;;;;;;;;;;5021601;28;20198;-70
2021/07/04 04:42:36;;;;;;;27.42;21.17;;;;;;;;;;5009974;28;20201;-70
2021/07/04 04:45:03;;;;;;;32.42;22.98;;;;;;;;;;5020119;28;20182;-70
2021/07/04 04:47:28;;;;;;;31.92;22.85;;;;;;;;;;5013714;28;20249;-70
2021/07/04 04:49:53;;;;;;;29.65;23.15;;;;;;;;;;5023282;28;20250;-70
2021/07/04 04:52:19;;;;;;;31.67;23.40;;;;;;;;;;5019646;28;20182;-70
2021/07/04 04:54:44;;;;;;;27.45;23.25;;;;;;;;;;5008385;28;20194;-70
2021/07/04 04:57:09;;;;;;;30.95;23.33;;;;;;;;;;5014658;28;20188;-70
2021/07/04 04:59:38;;;;;;;32.58;23.35;;;;;;;;;;5013630;28;20269;-70
2021/07/04 05:02:04;;;;;;;32.17;23.02;;;;;;;;;;5023791;28;20177;-70
2021/07/04 05:04:30;;;;;;;32.25;22.95;;;;;;;;;;5009700;28;20182;-70
2021/07/04 05:06:55;;;;;;;25.45;21.10;;;;;;;;;;5019574;28;20288;-70
2021/07/04 05:09:21;;;;;;;28.00;21.85;;;;;;;;;;5013025;28;20252;-70
2021/07/04 05:11:48;;;;;;;28.02;22.30;;;;;;;;;;5025759;28;20216;-70
2021/07/04 05:14:14;;;;;;;25.48;21.02;;;;;;;;;;5014467;28;20190;-70
2021/07/04 05:16:39;;;;;;;28.85;23.40;;;;;;;;;;5021568;28;20189;-70
2021/07/04 05:19:07;;;;;;;28.23;21.80;;;;;;;;;;5013103;28;20202;-70
2021/07/04 05:21:33;;;;;;;29.05;21.48;;;;;;;;;;5019933;28;20955;-70
2021/07/04 05:24:03;;;;;;;25.80;20.10;;;;;;;;;;5022437;28;20194;-70
2021/07/04 05:26:29;;;;;;;25.40;21.80;;;;;;;;;;4316664;28;10000748;-70
2021/07/04 05:28:55;;;;;;;27.15;22.08;;;;;;;;;;5014468;28;20211;-70
2021/07/04 05:31:21;;;;;;;26.52;21.65;;;;;;;;;;5006890;28;20241;-70
2021/07/04 05:33:47;;;;;;;26.48;21.20;;;;;;;;;;5014612;28;20190;-70
2021/07/04 05:36:12;;;;;;;23.95;19.60;;;;;;;;;;5010672;28;20190;-70
2021/07/04 05:38:40;;;;;;;23.98;20.58;;;;;;;;;;4997832;28;20182;-70
2021/07/04 05:41:06;;;;;;;25.08;20.20;;;;;;;;;;4996238;28;20602;-70
2021/07/04 05:43:31;;;;;;;26.00;21.27;;;;;;;;;;5020819;28;20553;-70
2021/07/04 05:46:00;;;;;;;23.85;20.85;;;;;;;;;;5009377;28;20186;-70
2021/07/04 05:48:26;;;;;;;26.27;21.58;;;;;;;;;;5017387;28;20208;-70
2021/07/04 05:50:52;;;;;;;24.73;21.40;;;;;;;;;;4996081;28;23472;-70
2021/07/04 05:53:17;;;;;;;33.67;21.50;;;;;;;;;;5004093;28;20546;-70
2021/07/04 05:55:43;;;;;;;27.35;21.42;;;;;;;;;;5023393;28;20212;-70
2021/07/04 05:58:09;;;;;;;25.25;21.90;;;;;;;;;;5012038;28;20194;-70
2021/07/04 06:00:35;;;;;;;25.42;21.05;;;;;;;;;;5021146;28;20233;-70
2021/07/04 06:03:01;;;;;;;26.48;21.23;;;;;;;;;;5013818;28;20542;-70
2021/07/04 06:05:26;;;;;;;25.83;20.60;;;;;;;;;;5024612;28;20194;-70
2021/07/04 06:07:52;;;;;;;24.83;21.52;;;;;;;;;;5015679;28;20186;-70
2021/07/04 06:10:17;;;;;;;28.42;22.80;;;;;;;;;;5021079;28;20269;-70
2021/07/04 06:12:43;;;;;;;25.95;22.08;;;;;;;;;;5017674;28;20196;-70
2021/07/04 06:15:09;;;;;;;26.95;20.90;;;;;;;;;;5007712;28;20634;-70
2021/07/04 06:17:34;;;;;;;27.25;23.33;;;;;;;;;;5014390;28;20193;-70
2021/07/04 06:20:00;;;;;;;27.25;21.85;;;;;;;;;;5026165;28;20677;-70
2021/07/04 06:22:25;;;;;;;26.85;22.27;;;;;;;;;;5013422;28;20182;-71
2021/07/04 06:24:50;;;;;;;27.40;21.95;;;;;;;;;;5024778;28;20197;-70
2021/07/04 06:27:16;;;;;;;25.20;20.52;;;;;;;;;;5022658;28;20182;-70
2021/07/04 06:29:41;;;;;;;22.48;20.02;;;;;;;;;;5012282;28;20304;-70
2021/07/04 06:32:07;;;;;;;27.50;19.35;;;;;;;;;;5023020;28;20239;-70
2021/07/04 06:34:32;;;;;;;21.90;17.65;;;;;;;;;;5016395;28;20264;-70
2021/07/04 06:36:57;;;;;;;22.83;18.02;;;;;;;;;;5023187;28;20236;-70
2021/07/04 06:39:23;;;;;;;21.80;16.60;;;;;;;;;;4998282;28;20178;-70
2021/07/04 06:41:48;;;;;;;18.88;16.88;;;;;;;;;;5024583;28;20186;-69
2021/07/04 06:44:14;;;;;;;18.55;16.27;;;;;;;;;;5014778;28;20190;-70
2021/07/04 06:46:39;;;;;;;21.40;16.63;;;;;;;;;;5024338;28;20720;-71
2021/07/04 06:49:04;;;;;;;20.83;17.90;;;;;;;;;;5016007;28;20221;-70
2021/07/04 06:51:30;;;;;;;18.27;16.27;;;;;;;;;;5022819;28;20309;-70
2021/07/04 06:53:55;;;;;;;20.58;17.20;;;;;;;;;;5012190;28;20197;-70
2021/07/04 06:56:21;;;;;;;19.60;17.40;;;;;;;;;;5023683;28;20197;-71
2021/07/04 06:58:46;;;;;;;22.48;16.75;;;;;;;;;;5023996;28;20633;-70
2021/07/04 07:01:13;;;;;;;24.80;17.73;;;;;;;;;;4665956;28;10001272;-70
2021/07/04 07:03:38;;;;;;;20.05;17.10;;;;;;;;;;5019229;28;20203;-71
2021/07/04 07:06:04;;;;;;;18.75;16.75;;;;;;;;;;5008902;28;20202;-70
2021/07/04 07:08:29;;;;;;;19.27;16.95;;;;;;;;;;5000300;28;20970;-70
2021/07/04 07:10:55;;;;;;;19.25;17.00;;;;;;;;;;5010112;28;20185;-71
2021/07/04 07:13:20;;;;;;;19.15;16.88;;;;;;;;;;5019063;28;20229;-69
2021/07/04 07:15:46;;;;;;;23.73;17.10;;;;;;;;;;5011971;28;20182;-69
2021/07/04 07:18:12;;;;;;;21.40;17.52;;;;;;;;;;5018449;28;20190;-70
2021/07/04 07:20:37;;;;;;;18.10;15.93;;;;;;;;;;5013533;28;20272;-69
2021/07/04 07:23:03;;;;;;;20.60;17.10;;;;;;;;;;5017683;28;20616;-69
2021/07/04 07:25:31;;;;;;;19.35;16.40;;;;;;;;;;5011121;28;20302;-69
2021/07/04 07:27:56;;;;;;;22.02;17.50;;;;;;;;;;5019686;28;20495;-69
2021/07/04 07:30:22;;;;;;;22.40;17.05;;;;;;;;;;5018346;28;20536;-70
2021/07/04 07:32:47;;;;;;;18.92;15.75;;;;;;;;;;5011409;28;20193;-69
2021/07/04 07:35:13;;;;;;;17.75;15.80;;;;;;;;;;5023170;28;20376;-70
2021/07/04 07:37:39;;;;;;;20.10;15.98;;;;;;;;;;5017416;28;20196;-70
2021/07/04 07:40:07;;;;;;;14.88;13.13;;;;;;;;;;5022453;28;20167;-71
2021/07/04 07:42:32;;;;;;;17.25;14.90;;;;;;;;;;5017574;28;20190;-70
2021/07/04 07:44:58;;;;;;;17.73;14.70;;;;;;;;;;5005519;28;20201;-70
2021/07/04 07:47:23;;;;;;;16.65;14.45;;;;;;;;;;5017153;28;21340;-69
2021/07/04 07:49:48;;;;;;;15.68;13.55;;;;;;;;;;5022608;28;20213;-70
2021/07/04 07:52:14;;;;;;;16.15;12.88;;;;;;;;;;5010061;28;20184;-70
2021/07/04 07:54:39;;;;;;;14.77;13.25;;;;;;;;;;5021524;28;20193;-70
2021/07/04 07:57:07;;;;;;;13.80;12.40;;;;;;;;;;5013531;28;20542;-70
2021/07/04 07:59:32;;;;;;;14.50;12.88;;;;;;;;;;5021855;28;20182;-71
2021/07/04 08:01:58;;;;;;;16.10;13.00;;;;;;;;;;5024239;28;20187;-70
2021/07/04 08:04:24;;;;;;;15.07;12.60;;;;;;;;;;4997214;28;20194;-70
2021/07/04 08:06:49;;;;;;;15.57;11.95;;;;;;;;;;5022748;28;20236;-70
2021/07/04 08:09:15;;;;;;;14.18;11.57;;;;;;;;;;5007651;28;20300;-70
2021/07/04 08:11:40;;;;;;;14.63;11.80;;;;;;;;;;5005623;28;20776;-71
2021/07/04 08:14:06;;;;;;;12.50;11.20;;;;;;;;;;5009832;28;20244;-70
2021/07/04 08:16:31;;;;;;;14.35;11.82;;;;;;;;;;5024327;28;20552;-71
2021/07/04 08:18:57;;;;;;;13.65;12.25;;;;;;;;;;4996565;28;20187;-70
2021/07/04 08:21:22;;;;;;;13.70;12.25;;;;;;;;;;5018810;28;20248;-70
2021/07/04 08:23:47;;;;;;;13.30;11.65;;;;;;;;;;4998249;28;20190;-71
2021/07/04 08:26:13;;;;;;;16.08;12.70;;;;;;;;;;5023819;28;20174;-71
2021/07/04 08:28:38;;;;;;;13.02;11.73;;;;;;;;;;5013531;28;20543;-71
2021/07/04 08:31:04;;;;;;;13.48;11.02;;;;;;;;;;5007796;28;20595;-70
2021/07/04 08:33:29;;;;;;;12.73;11.27;;;;;;;;;;5021230;28;20205;-69
2021/07/04 08:35:55;;;;;;;14.07;12.50;;;;;;;;;;5008455;28;20280;-70
2021/07/04 08:38:20;;;;;;;14.10;11.63;;;;;;;;;;5022160;28;20269;-71
2021/07/04 08:40:46;;;;;;;14.18;12.52;;;;;;;;;;5008390;28;20183;-71
2021/07/04 08:43:24;;;;;;;15.93;11.82;;;;;;;;;;5022645;28;20276;-71
2021/07/04 08:45:49;;;;;;;15.90;13.48;;;;;;;;;;4663862;28;10000216;-70
2021/07/04 08:48:15;;;;;;;15.45;12.48;;;;;;;;;;5036439;28;20292;-71
2021/07/04 08:50:41;;;;;;;13.90;12.40;;;;;;;;;;5031566;28;20688;-71
2021/07/04 08:53:06;;;;;;;15.73;14.02;;;;;;;;;;5037939;28;20452;-72
2021/07/04 08:55:32;;;;;;;14.57;13.18;;;;;;;;;;5029653;28;20199;-69
2021/07/04 08:57:57;;;;;;;17.33;13.50;;;;;;;;;;5040596;28;20446;-71
2021/07/04 09:00:24;;;;;;;16.45;13.95;;;;;;;;;;5023733;28;20208;-71
2021/07/04 09:02:50;;;;;;;16.50;14.40;;;;;;;;;;5037731;28;20432;-70
2021/07/04 09:05:16;;;;;;;19.42;15.00;;;;;;;;;;5038329;28;20192;-71
2021/07/04 09:07:43;;;;;;;20.15;15.05;;;;;;;;;;5029831;28;20197;-70
2021/07/04 09:10:20;;;;;;;18.67;16.05;;;;;;;;;;5042864;28;20189;-71
2021/07/04 09:12:49;;;;;;;19.13;16.40;;;;;;;;;;5031882;28;20181;-71
2021/07/04 09:15:23;;;;;;;15.45;13.77;;;;;;;;;;5040978;28;20196;-71
2021/07/04 09:17:50;;;;;;;17.48;15.45;;;;;;;;;;5029889;28;20318;-71
2021/07/04 09:20:40;;;;;;;17.80;15.05;;;;;;;;;;5044071;28;20189;-72
2021/07/04 09:23:06;;;;;;;18.13;16.05;;;;;;;;;;5032557;28;20197;-70
2021/07/04 09:25:35;;;;;;;17.63;15.60;;;;;;;;;;5046227;28;20188;-70
2021/07/04 09:28:11;;;;;;;19.40;16.67;;;;;;;;;;5031598;28;20185;-71
2021/07/04 09:30:52;;;;;;;20.42;16.95;;;;;;;;;;5040241;28;20556;-71
2021/07/04 09:33:20;;;;;;;18.50;16.60;;;;;;;;;;5035781;28;20187;-70
2021/07/04 09:36:02;;;;;;;18.25;15.75;;;;;;;;;;5045285;28;20177;-70
2021/07/04 09:38:35;;;;;;;17.73;15.82;;;;;;;;;;5034046;28;20197;-70
2021/07/04 09:41:02;;;;;;;21.10;18.90;;;;;;;;;;5045921;28;20263;-70
2021/07/04 09:43:29;;;;;;;20.48;18.38;;;;;;;;;;5034103;28;20555;-70
2021/07/04 09:46:04;;;;;;;21.80;19.45;;;;;;;;;;5038321;28;20857;-71
2021/07/04 09:48:29;;;;;;;20.27;18.15;;;;;;;;;;5015898;28;20217;-70
2021/07/04 09:51:00;;;;;;;18.60;16.70;;;;;;;;;;5025273;28;20291;-71
2021/07/04 09:53:39;;;;;;;19.63;17.67;;;;;;;;;;5013447;28;20194;-70
2021/07/04 09:56:15;;;;;;;20.58;17.52;;;;;;;;;;5022296;28;20185;-71
2021/07/04 09:58:42;;;;;;;20.98;18.50;;;;;;;;;;5015989;28;20177;-70
2021/07/04 10:01:08;;;;;;;21.33;18.42;;;;;;;;;;5024597;28;20205;-70
2021/07/04 10:03:39;;;;;;;20.08;18.00;;;;;;;;;;5012009;28;20193;-71
2021/07/04 10:06:08;;;;;;;19.58;17.55;;;;;;;;;;5028451;28;20193;-71
2021/07/04 10:08:38;;;;;;;20.48;18.27;;;;;;;;;;5013017;28;20217;-72
2021/07/04 10:11:10;;;;;;;21.40;18.52;;;;;;;;;;5025116;28;20183;-70
2021/07/04 10:13:37;;;;;;;20.45;18.13;;;;;;;;;;5022289;28;20542;-72
2021/07/04 10:16:05;;;;;;;20.25;17.38;;;;;;;;;;5020850;28;20650;-70
2021/07/04 10:18:31;;;;;;;22.92;19.50;;;;;;;;;;5007137;28;20178;-70
2021/07/04 10:20:57;;;;;;;20.05;17.92;;;;;;;;;;5018201;28;20193;-71
2021/07/04 10:23:25;;;;;;;20.45;18.27;;;;;;;;;;5022477;28;20191;-70
2021/07/04 10:25:52;;;;;;;20.20;18.15;;;;;;;;;;5001314;28;20189;-69
2021/07/04 10:28:25;;;;;;;20.83;18.63;;;;;;;;;;5024512;28;20214;-70
2021/07/04 10:30:51;;;;;;;21.65;19.48;;;;;;;;;;5019168;28;20197;-70
2021/07/04 10:33:23;;;;;;;20.48;18.27;;;;;;;;;;5026709;28;20703;-70
2021/07/04 10:36:12;;;;;;;20.45;17.48;;;;;;;;;;5020758;28;20190;-69
2021/07/04 10:38:46;;;;;;;19.88;17.55;;;;;;;;;;5027203;28;20174;-70
2021/07/04 10:41:13;;;;;;;18.73;16.77;;;;;;;;;;5019781;28;20189;-72
2021/07/04 10:43:51;;;;;;;19.92;16.98;;;;;;;;;;5024030;28;20189;-70
2021/07/04 10:46:16;;;;;;;18.02;16.13;;;;;;;;;;5017326;28;20229;-70
2021/07/04 10:48:53;;;;;;;20.60;18.45;;;;;;;;;;5024209;28;20696;-70
2021/07/04 10:51:20;;;;;;;17.92;16.02;;;;;;;;;;4996316;28;20197;-70
2021/07/04 10:53:48;;;;;;;19.00;17.10;;;;;;;;;;5024416;28;20175;-70
2021/07/04 10:56:35;;;;;;;19.38;17.38;;;;;;;;;;5017948;28;20796;-70
2021/07/04 10:59:00;;;;;;;20.15;18.23;;;;;;;;;;5023161;28;20194;-70
2021/07/04 11:01:59;;;;;;;19.80;17.92;;;;;;;;;;5019378;28;20230;-70
2021/07/04 11:04:27;;;;;;;18.60;16.77;;;;;;;;;;5026152;28;20170;-68
2021/07/04 11:06:57;;;;;;;20.00;17.88;;;;;;;;;;5018845;28;20190;-69
2021/07/04 11:09:23;;;;;;;21.63;19.33;;;;;;;;;;5022262;28;20208;-68
2021/07/04 11:11:48;;;;;;;19.30;17.50;;;;;;;;;;5016249;28;20564;-70
2021/07/04 11:14:14;;;;;;;18.83;17.13;;;;;;;;;;5021858;28;20191;-71
2021/07/04 11:17:02;;;;;;;17.23;15.40;;;;;;;;;;5026864;28;20224;-70
2021/07/04 11:19:28;;;;;;;16.23;14.52;;;;;;;;;;5012076;28;20244;-70
2021/07/04 11:21:58;;;;;;;17.60;15.77;;;;;;;;;;5014305;28;20191;-70
2021/07/04 11:24:28;;;;;;;16.95;15.25;;;;;;;;;;5016145;28;20613;-71
2021/07/04 11:27:20;;;;;;;17.25;15.55;;;;;;;;;;5020739;28;20265;-71
2021/07/04 11:30:16;;;;;;;18.92;16.20;;;;;;;;;;5010560;28;20346;-69
2021/07/04 11:32:42;;;;;;;18.10;15.82;;;;;;;;;;5019018;28;20695;-71
2021/07/04 11:35:07;;;;;;;16.58;15.05;;;;;;;;;;5014064;28;20186;-71
2021/07/04 11:37:40;;;;;;;15.95;14.35;;;;;;;;;;5019221;28;20252;-70
2021/07/04 11:40:06;;;;;;;17.02;15.45;;;;;;;;;;5010733;28;20577;-70
2021/07/04 11:42:32;;;;;;;21.63;19.60;;;;;;;;;;5023276;28;20277;-71
2021/07/04 11:44:57;;;;;;;20.70;18.60;;;;;;;;;;5012703;28;20197;-70
2021/07/04 11:47:22;;;;;;;20.38;18.40;;;;;;;;;;5018903;28;20592;-70
2021/07/04 11:49:48;;;;;;;22.55;20.33;;;;;;;;;;5014839;28;20238;-69
2021/07/04 11:52:20;;;;;;;23.30;21.10;;;;;;;;;;5021844;28;20245;-69
2021/07/04 11:54:46;;;;;;;27.92;24.88;;;;;;;;;;5014874;28;20190;-69
2021/07/04 11:57:30;;;;;;;26.42;23.73;;;;;;;;;;5021501;28;20205;-69
2021/07/04 12:00:07;;;;;;;28.27;25.48;;;;;;;;;;5010851;28;20205;-70
2021/07/04 12:02:35;;;;;;;26.48;23.88;;;;;;;;;;5022937;28;20645;-69
2021/07/04 12:05:11;;;;;;;25.40;22.80;;;;;;;;;;5013646;28;20186;-69
2021/07/04 12:07:36;;;;;;;24.73;22.02;;;;;;;;;;5019513;28;20757;-68
2021/07/04 12:10:02;;;;;;;22.48;20.27;;;;;;;;;;5014780;28;22018;-68
2021/07/04 12:12:33;;;;;;;24.27;21.42;;;;;;;;;;5019395;28;20182;-69
2021/07/04 12:15:05;;;;;;;19.55;17.75;;;;;;;;;;5019521;28;20196;-68
2021/07/04 12:17:33;;;;;;;20.17;18.10;;;;;;;;;;5019638;28;20241;-67
2021/07/04 12:20:12;;;;;;;22.08;19.73;;;;;;;;;;5021532;28;20514;-69
2021/07/04 12:22:54;;;;;;;19.25;17.25;;;;;;;;;;5011312;28;20251;-68
2021/07/04 12:25:22;;;;;;;18.58;16.77;;;;;;;;;;5019100;28;20280;-68
2021/07/04 12:27:51;;;;;;;19.55;17.63;;;;;;;;;;5011103;28;20194;-69
2021/07/04 12:30:24;;;;;;;16.83;15.23;;;;;;;;;;5018448;28;20212;-70
2021/07/04 12:33:02;;;;;;;17.67;15.80;;;;;;;;;;5012357;28;20198;-69
2021/07/04 12:35:32;;;;;;;16.13;13.75;;;;;;;;;;5019498;28;20186;-68
2021/07/04 12:38:00;;;;;;;14.52;13.02;;;;;;;;;;5010562;28;20194;-69
2021/07/04 12:40:29;;;;;;;14.10;12.80;;;;;;;;;;5019949;28;20185;-69
2021/07/04 12:43:06;;;;;;;16.52;14.70;;;;;;;;;;5011670;28;20190;-71
2021/07/04 12:45:31;;;;;;;14.90;13.32;;;;;;;;;;5015894;28;20193;-71
2021/07/04 12:48:05;;;;;;;14.85;13.35;;;;;;;;;;5011602;28;20226;-70
2021/07/04 12:50:50;;;;;;;15.27;13.77;;;;;;;;;;5018297;28;20262;-70
2021/07/04 12:53:16;;;;;;;13.15;11.93;;;;;;;;;;5012065;28;20254;-70
2021/07/04 12:55:46;;;;;;;14.90;12.63;;;;;;;;;;5019000;28;20674;-70
2021/07/04 12:58:19;;;;;;;14.00;12.60;;;;;;;;;;4994100;28;20222;-69
2021/07/04 13:00:45;;;;;;;16.15;14.65;;;;;;;;;;5020473;28;20212;-68
2021/07/04 13:03:11;;;;;;;15.18;13.68;;;;;;;;;;5009542;28;20194;-69
2021/07/04 13:05:38;;;;;;;14.10;12.80;;;;;;;;;;5014471;28;20269;-69
2021/07/04 13:08:11;;;;;;;15.45;13.85;;;;;;;;;;5009234;28;20195;-69
2021/07/04 13:10:37;;;;;;;15.68;14.15;;;;;;;;;;5015295;28;20733;-69
2021/07/04 13:13:09;;;;;;;15.43;13.93;;;;;;;;;;5007394;28;20281;-69
2021/07/04 13:15:36;;;;;;;14.85;13.32;;;;;;;;;;4997606;28;20225;-69
2021/07/04 13:18:02;;;;;;;15.80;14.30;;;;;;;;;;5015595;28;20186;-69
2021/07/04 13:20:28;;;;;;;15.25;13.85;;;;;;;;;;5009913;28;20197;-68
2021/07/04 13:22:56;;;;;;;15.95;14.40;;;;;;;;;;5017903;28;20228;-69
2021/07/04 13:25:30;;;;;;;16.25;14.57;;;;;;;;;;5010148;28;20669;-72
2021/07/04 13:28:00;;;;;;;15.98;14.40;;;;;;;;;;5020164;28;20272;-69
2021/07/04 13:30:26;;;;;;;14.55;13.18;;;;;;;;;;5005085;28;20190;-71
2021/07/04 13:32:58;;;;;;;15.98;13.32;;;;;;;;;;5021416;28;20190;-70
2021/07/04 13:35:44;;;;;;;14.05;12.65;;;;;;;;;;4990958;28;20466;-71
2021/07/04 13:38:12;;;;;;;14.77;13.35;;;;;;;;;;5020289;28;20216;-71
2021/07/04 13:40:40;;;;;;;14.77;13.48;;;;;;;;;;5010833;28;20190;-70
2021/07/04 13:43:06;;;;;;;13.65;12.38;;;;;;;;;;5020057;28;20264;-69
2021/07/04 13:45:55;;;;;;;14.27;12.77;;;;;;;;;;5011113;28;20193;-70
2021/07/04 13:48:25;;;;;;;12.77;11.52;;;;;;;;;;5020174;28;20738;-71
2021/07/04 13:50:57;;;;;;;13.10;11.90;;;;;;;;;;5005121;28;20186;-70
2021/07/04 13:53:24;;;;;;;13.95;12.13;;;;;;;;;;5019106;28;20200;-69
2021/07/04 13:55:51;;;;;;;13.40;12.05;;;;;;;;;;5012075;28;20274;-69
2021/07/04 13:58:17;;;;;;;13.32;11.98;;;;;;;;;;5021051;28;20183;-69
2021/07/04 14:00:45;;;;;;;15.43;14.02;;;;;;;;;;5012119;28;20665;-70
2021/07/04 14:03:10;;;;;;;10.23;9.10;;;;;;;;;;5017640;28;20186;-71
2021/07/04 14:05:36;;;;;;;8.90;7.57;;;;;;;;;;5016659;28;20660;-69
2021/07/04 14:08:03;;;;;;;7.55;4.50;;;;;;;;;;5019761;28;20247;-70
2021/07/04 14:10:29;;;;;;;4.80;3.88;;;;;;;;;;5018035;28;20182;-68
2021/07/04 14:12:54;;;;;;;6.18;3.50;;;;;;;;;;5014896;28;20212;-70
2021/07/04 14:15:20;;;;;;;5.43;3.60;;;;;;;;;;5020094;28;20190;-71
2021/07/04 14:17:45;;;;;;;6.38;4.03;;;;;;;;;;5015300;28;20929;-71
2021/07/04 14:20:13;;;;;;;10.80;4.63;;;;;;;;;;5017982;28;20185;-72